createdAt,value
2022-09-05T00:03:01.114Z,10.67
2022-09-05T00:06:14.771Z,10.74
2022-09-05T00:10:02.105Z,10.77
2022-09-05T00:13:20.714Z,10.78
2022-09-05T00:16:46.661Z,10.75
2022-09-05T00:24:18.693Z,10.85
2022-09-05T00:24:42.117Z,11.05
2022-09-05T00:27:26.353Z,11.08
2022-09-05T00:31:07.969Z,11.15
2022-09-05T00:34:19.377Z,11.25
2022-09-05T00:37:34.494Z,11.38
2022-09-05T00:40:43.886Z,11.56
2022-09-05T00:43:51.889Z,11.62
2022-09-05T00:47:29.951Z,11.67
2022-09-05T00:50:43.055Z,11.67
2022-09-05T00:54:06.532Z,11.67
2022-09-05T00:57:18.071Z,11.71
2022-09-05T01:00:38.533Z,11.70
2022-09-05T01:03:54.037Z,11.75
2022-09-05T01:07:03.716Z,11.75
2022-09-05T01:10:13.312Z,11.81
2022-09-05T01:13:28.677Z,11.90
2022-09-05T01:16:52.651Z,12.06
2022-09-05T01:20:19.335Z,12.09
2022-09-05T01:23:42.549Z,12.19
2022-09-05T01:27:02.669Z,12.26
2022-09-05T01:30:09.211Z,12.20
2022-09-05T01:33:44.346Z,12.28
2022-09-05T01:37:33.982Z,12.44
2022-09-05T01:40:43.560Z,12.49
2022-09-05T01:44:10.972Z,12.55
2022-09-05T01:47:40.789Z,12.61
2022-09-05T01:51:10.741Z,12.58
2022-09-05T01:54:54.988Z,12.62
2022-09-05T01:58:19.883Z,12.60
2022-09-05T02:01:47.829Z,12.70
2022-09-05T02:05:17.014Z,12.93
2022-09-05T02:09:06.576Z,13.07
2022-09-05T02:12:17.193Z,13.08
2022-09-05T02:15:27.756Z,13.05
2022-09-05T02:18:37.910Z,13.13
2022-09-05T02:21:56.692Z,13.22
2022-09-05T02:25:25.600Z,13.32
2022-09-05T02:29:02.494Z,13.21
2022-09-05T02:32:32.667Z,13.18
2022-09-05T02:35:53.070Z,13.11
2022-09-05T02:45:03.415Z,13.05
2022-09-05T02:45:17.650Z,13.29
2022-09-05T02:46:47.175Z,13.36
2022-09-05T02:57:23.894Z,13.26
2022-09-05T02:57:40.980Z,13.35
2022-09-05T02:58:05.333Z,13.40
2022-09-05T03:01:23.125Z,13.40
2022-09-05T03:04:45.498Z,13.53
2022-09-05T03:08:24.870Z,13.65
2022-09-05T03:11:49.713Z,13.64
2022-09-05T03:15:22.539Z,13.55
2022-09-05T03:18:54.232Z,13.57
2022-09-05T03:22:37.211Z,13.45
2022-09-05T03:26:05.523Z,13.43
2022-09-05T03:29:38.959Z,13.35
2022-09-05T03:33:09.948Z,13.38
2022-09-05T03:36:23.786Z,13.30
2022-09-05T03:39:54.100Z,13.24
2022-09-05T03:43:09.919Z,13.25
2022-09-05T03:46:26.452Z,13.24
2022-09-05T03:52:16.816Z,13.21
2022-09-05T03:57:16.932Z,13.24
2022-09-05T03:57:42.125Z,13.19
2022-09-05T04:01:13.937Z,13.26
2022-09-05T04:08:14.241Z,13.25
2022-09-05T04:08:18.632Z,13.27
2022-09-05T04:11:32.676Z,13.18
2022-09-05T04:14:51.860Z,13.17
2022-09-05T04:18:13.990Z,13.23
2022-09-05T04:21:29.046Z,13.28
2022-09-05T04:25:06.784Z,13.38
2022-09-05T04:28:53.708Z,13.45
2022-09-05T04:32:37.084Z,13.49
2022-09-05T04:36:03.517Z,13.57
2022-09-05T04:39:21.742Z,13.59
2022-09-05T04:42:26.983Z,13.59
2022-09-05T04:45:37.718Z,13.57
2022-09-05T04:48:46.435Z,13.54
2022-09-05T04:52:00.894Z,13.58
2022-09-05T04:55:14.041Z,13.58
2022-09-05T04:59:14.533Z,13.61
2022-09-05T05:06:18.705Z,13.54
2022-09-05T05:06:19.941Z,13.60
2022-09-05T05:09:26.026Z,13.52
2022-09-05T05:17:55.063Z,13.47
2022-09-05T05:18:07.943Z,13.44
2022-09-05T05:20:40.469Z,13.47
2022-09-05T05:23:20.833Z,13.58
2022-09-05T05:26:49.430Z,13.58
2022-09-05T05:30:09.829Z,13.64
2022-09-05T05:33:29.129Z,13.62
2022-09-05T05:36:40.436Z,13.64
2022-09-05T05:40:09.622Z,13.66
2022-09-05T05:43:26.556Z,13.59
2022-09-05T05:46:34.206Z,13.55
2022-09-05T05:49:53.299Z,13.53
2022-09-05T05:53:33.605Z,13.61
2022-09-05T05:57:15.092Z,13.86
2022-09-05T06:00:27.718Z,13.93
2022-09-05T06:04:04.019Z,14.08
2022-09-05T06:07:16.400Z,14.10
2022-09-05T06:14:55.456Z,14.13
2022-09-05T06:15:10.569Z,13.84
2022-09-05T06:18:42.598Z,13.72
2022-09-05T06:22:26.876Z,13.74
2022-09-05T06:26:15.643Z,13.81
2022-09-05T06:29:47.046Z,13.69
2022-09-05T06:33:07.311Z,13.67
2022-09-05T06:36:20.170Z,13.67
2022-09-05T06:39:43.786Z,13.69
2022-09-05T06:43:16.529Z,13.53
2022-09-05T06:47:22.474Z,13.38
2022-09-05T06:50:27.954Z,13.48
2022-09-05T06:53:58.482Z,13.45
2022-09-05T06:57:12.009Z,13.45
2022-09-05T07:00:23.662Z,13.40
2022-09-05T07:03:52.347Z,13.43
2022-09-05T07:07:23.667Z,13.29
2022-09-05T07:10:41.122Z,13.23
2022-09-05T07:13:56.355Z,13.26
2022-09-05T07:17:03.259Z,13.21
2022-09-05T07:20:28.396Z,13.22
2022-09-05T07:24:13.029Z,13.32
2022-09-05T07:27:30.522Z,13.37
2022-09-05T07:30:36.107Z,13.31
2022-09-05T07:33:40.802Z,13.39
2022-09-05T07:36:48.258Z,13.41
2022-09-05T07:39:57.468Z,13.40
2022-09-05T07:43:24.944Z,13.42
2022-09-05T07:46:33.431Z,13.44
2022-09-05T07:49:51.896Z,13.46
2022-09-05T07:56:58.766Z,13.35
2022-09-05T07:57:31.281Z,13.35
2022-09-05T08:00:35.795Z,13.43
2022-09-05T08:03:41.737Z,13.60
2022-09-05T08:07:47.879Z,13.77
2022-09-05T08:10:15.568Z,13.76
2022-09-05T08:13:27.165Z,13.78
2022-09-05T08:16:32.938Z,13.81
2022-09-05T08:19:39.578Z,13.82
2022-09-05T08:22:58.355Z,13.78
2022-09-05T08:26:01.721Z,13.64
2022-09-05T08:29:12.018Z,13.56
2022-09-05T08:32:23.167Z,13.48
2022-09-05T08:35:28.952Z,13.45
2022-09-05T08:38:40.319Z,13.44
2022-09-05T08:42:12.149Z,13.52
2022-09-05T08:46:44.300Z,13.46
2022-09-05T08:49:50.809Z,13.47
2022-09-05T08:52:54.387Z,13.49
2022-09-05T08:56:17.027Z,13.57
2022-09-05T08:59:33.011Z,13.48
2022-09-05T09:02:55.475Z,13.45
2022-09-05T09:06:34.140Z,13.39
2022-09-05T09:10:24.033Z,13.37
2022-09-05T09:13:52.829Z,13.39
2022-09-05T09:17:20.455Z,13.36
2022-09-05T09:20:46.647Z,13.38
2022-09-05T09:24:12.132Z,13.41
2022-09-05T09:28:46.710Z,13.44
2022-09-05T09:31:26.986Z,13.46
2022-09-05T09:34:47.081Z,13.52
2022-09-05T09:38:09.990Z,13.51
2022-09-05T09:41:23.120Z,13.48
2022-09-05T09:45:21.418Z,13.54
2022-09-05T09:48:28.010Z,13.58
2022-09-05T09:51:56.236Z,13.66
2022-09-05T09:55:44.695Z,13.66
2022-09-05T09:59:17.825Z,13.64
2022-09-05T10:08:59.781Z,13.63
2022-09-05T10:10:47.955Z,13.61
2022-09-05T10:10:55.576Z,13.59
2022-09-05T10:14:05.710Z,13.68
2022-09-05T10:17:47.676Z,13.71
2022-09-05T10:21:16.107Z,13.72
2022-09-05T10:24:37.672Z,13.67
2022-09-05T10:28:01.427Z,13.68
2022-09-05T10:32:56.062Z,13.75
2022-09-05T10:35:31.289Z,13.81
2022-09-05T10:38:35.193Z,13.74
2022-09-05T10:42:03.617Z,13.70
2022-09-05T10:45:34.282Z,13.66
2022-09-05T10:48:53.669Z,13.61
2022-09-05T10:52:18.114Z,13.53
2022-09-05T10:55:58.709Z,13.51
2022-09-05T11:02:03.342Z,13.45
2022-09-05T11:02:39.638Z,13.35
2022-09-05T11:05:58.322Z,13.27
2022-09-05T11:09:08.296Z,13.23
2022-09-05T11:12:21.286Z,13.21
2022-09-05T11:15:43.959Z,13.21
2022-09-05T11:18:56.887Z,13.28
2022-09-05T11:22:22.448Z,13.29
2022-09-05T11:25:39.623Z,13.30
2022-09-05T11:28:59.930Z,13.31
2022-09-05T11:36:14.660Z,13.32
2022-09-05T11:40:08.460Z,13.39
2022-09-05T11:40:24.801Z,13.34
2022-09-05T11:43:36.254Z,13.26
2022-09-05T11:47:30.167Z,13.21
2022-09-05T11:51:02.857Z,13.09
2022-09-05T11:54:28.981Z,13.12
2022-09-05T11:57:57.129Z,13.12
2022-09-05T12:01:44.481Z,13.11
2022-09-05T12:05:48.788Z,12.98
2022-09-05T12:08:37.628Z,12.89
2022-09-05T12:11:56.301Z,12.90
2022-09-05T12:15:28.440Z,12.86
2022-09-05T12:18:36.339Z,12.87
2022-09-05T12:22:08.992Z,12.86
2022-09-05T12:27:44.288Z,12.90
2022-09-05T12:29:29.689Z,12.87
2022-09-05T12:36:03.704Z,12.86
2022-09-05T12:40:54.867Z,12.78
2022-09-05T12:41:34.386Z,12.76
2022-09-05T12:44:42.556Z,12.78
2022-09-05T12:47:30.569Z,12.71
2022-09-05T12:50:55.758Z,12.56
2022-09-05T12:54:04.254Z,12.53
2022-09-05T12:59:53.889Z,12.54
2022-09-05T13:03:13.739Z,12.49
2022-09-05T13:05:04.718Z,12.38
2022-09-05T13:08:13.885Z,12.39
2022-09-05T13:14:47.917Z,12.39
2022-09-05T13:15:23.089Z,12.40
2022-09-05T13:18:44.002Z,12.34
2022-09-05T13:21:53.157Z,12.26
2022-09-05T13:25:09.565Z,12.26
2022-09-05T13:28:15.874Z,12.18
2022-09-05T13:37:59.279Z,12.20
2022-09-05T13:38:04.969Z,12.17
2022-09-05T13:39:06.573Z,12.17
2022-09-05T13:42:18.794Z,12.15
2022-09-05T13:45:23.875Z,12.10
2022-09-05T13:52:29.883Z,12.09
2022-09-05T13:56:15.069Z,12.17
2022-09-05T13:59:22.225Z,12.15
2022-09-05T14:03:29.819Z,12.17
2022-09-05T14:06:32.815Z,12.15
2022-09-05T14:10:31.711Z,12.12
2022-09-05T14:14:11.552Z,12.07
2022-09-05T14:21:25.054Z,11.94
2022-09-05T14:24:28.470Z,11.90
2022-09-05T14:27:33.819Z,11.89
2022-09-05T14:33:41.762Z,11.90
2022-09-05T14:37:50.390Z,11.90
2022-09-05T14:38:28.429Z,11.86
2022-09-05T14:42:07.828Z,11.84
2022-09-05T14:45:40.762Z,11.80
2022-09-05T14:49:23.683Z,11.78
2022-09-05T14:52:30.166Z,11.65
2022-09-05T14:55:35.808Z,11.66
2022-09-05T15:02:39.865Z,11.69
2022-09-05T15:02:56.032Z,11.68
2022-09-05T15:05:59.233Z,11.53
2022-09-05T15:11:25.883Z,11.50
2022-09-05T15:12:44.092Z,11.50
2022-09-05T15:16:09.713Z,11.57
2022-09-05T15:19:49.340Z,11.55
2022-09-05T15:23:16.867Z,11.52
2022-09-05T15:26:25.669Z,11.49
2022-09-05T15:29:34.938Z,11.52
2022-09-05T15:32:39.758Z,11.55
2022-09-05T15:35:46.053Z,11.60
2022-09-05T15:38:55.914Z,11.63
2022-09-05T15:42:32.106Z,11.71
2022-09-05T15:45:38.462Z,11.73
2022-09-05T15:48:42.588Z,11.83
2022-09-05T15:51:52.181Z,11.90
2022-09-05T15:55:02.462Z,11.95
2022-09-05T15:58:08.519Z,11.96
2022-09-05T16:01:30.441Z,11.97
2022-09-05T16:10:36.458Z,11.99
2022-09-05T16:10:38.138Z,12.00
2022-09-05T16:18:22.026Z,12.03
2022-09-05T16:23:31.431Z,12.13
2022-09-05T16:23:34.960Z,12.12
2022-09-05T16:25:37.313Z,12.13
2022-09-05T16:28:49.777Z,12.16
2022-09-05T16:32:02.688Z,12.15
2022-09-05T16:35:12.947Z,12.12
2022-09-05T16:38:24.181Z,12.08
2022-09-05T16:42:46.640Z,12.14
2022-09-05T16:46:27.656Z,12.21
2022-09-05T16:49:41.969Z,12.23
2022-09-05T16:52:53.247Z,12.22
2022-09-05T16:56:17.784Z,12.21
2022-09-05T16:59:29.543Z,12.21
2022-09-05T17:02:49.964Z,12.24
2022-09-05T17:06:14.023Z,12.26
2022-09-05T17:09:50.320Z,12.26
2022-09-05T17:12:56.513Z,12.24
2022-09-05T17:16:02.513Z,12.29
2022-09-05T17:19:16.780Z,12.37
2022-09-05T17:24:50.892Z,12.34
2022-09-05T17:29:25.567Z,12.33
2022-09-05T17:32:52.578Z,12.32
2022-09-05T17:36:41.385Z,12.27
2022-09-05T17:39:57.936Z,12.26
2022-09-05T17:43:19.770Z,12.35
2022-09-05T17:46:35.026Z,12.41
2022-09-05T17:49:46.580Z,12.42
2022-09-05T17:53:26.941Z,12.42
2022-09-05T17:56:40.406Z,12.43
2022-09-05T17:59:43.568Z,12.45
2022-09-05T18:02:57.668Z,12.42
2022-09-05T18:06:04.858Z,12.40
2022-09-05T18:09:40.812Z,12.43
2022-09-05T18:13:13.840Z,12.40
2022-09-05T18:16:59.083Z,12.47
2022-09-05T18:20:23.440Z,12.47
2022-09-05T18:23:46.649Z,12.53
2022-09-05T18:27:27.415Z,12.50
2022-09-05T18:30:30.027Z,12.50
2022-09-05T18:33:55.395Z,12.49
2022-09-05T18:36:58.395Z,12.49
2022-09-05T18:40:45.014Z,12.50
2022-09-05T18:44:14.056Z,12.53
2022-09-05T18:47:33.243Z,12.57
2022-09-05T18:50:46.511Z,12.56
2022-09-05T18:53:51.601Z,12.56
2022-09-05T18:57:26.487Z,12.57
2022-09-05T19:00:49.787Z,12.61
2022-09-05T19:03:56.011Z,12.65
2022-09-05T19:07:28.177Z,12.70
2022-09-05T19:10:37.025Z,12.64
2022-09-05T19:13:44.542Z,12.71
2022-09-05T19:16:49.341Z,12.73
2022-09-05T19:20:33.317Z,12.77
2022-09-05T19:23:44.185Z,12.76
2022-09-05T19:26:54.804Z,12.72
2022-09-05T19:36:53.902Z,12.70
2022-09-05T19:37:15.380Z,12.73
2022-09-05T19:37:46.336Z,12.66
2022-09-05T19:47:48.106Z,12.68
2022-09-05T19:47:50.527Z,12.66
2022-09-05T19:48:35.111Z,12.68
2022-09-05T19:51:43.977Z,12.63
2022-09-05T19:54:52.282Z,12.68
2022-09-05T19:58:17.190Z,12.65
2022-09-05T20:01:23.817Z,12.73
2022-09-05T20:04:47.281Z,12.77
2022-09-05T20:07:59.253Z,12.78
2022-09-05T20:11:05.541Z,12.77
2022-09-05T20:14:27.769Z,12.74
2022-09-05T20:17:35.071Z,12.72
2022-09-05T20:20:38.571Z,12.73
2022-09-05T20:23:50.129Z,12.73
2022-09-05T20:26:54.333Z,12.68
2022-09-05T20:30:01.441Z,12.66
2022-09-05T20:33:11.598Z,12.56
2022-09-05T20:43:08.991Z,12.57
2022-09-05T20:43:29.087Z,12.60
2022-09-05T20:43:37.420Z,12.65
2022-09-05T20:49:49.854Z,12.69
2022-09-05T20:54:14.019Z,12.72
2022-09-05T20:54:14.296Z,12.67
2022-09-05T20:57:19.560Z,12.64
2022-09-05T21:00:25.407Z,12.62
2022-09-05T21:03:38.427Z,12.60
2022-09-05T21:06:42.302Z,12.53
2022-09-05T21:10:06.920Z,12.52
2022-09-05T21:13:10.628Z,12.46
2022-09-05T21:16:37.711Z,12.41
2022-09-05T21:19:42.509Z,12.34
2022-09-05T21:22:56.842Z,12.27
2022-09-05T21:26:03.484Z,12.17
2022-09-05T21:29:32.462Z,12.24
2022-09-05T21:32:41.883Z,12.16
2022-09-05T21:35:47.720Z,12.09
2022-09-05T21:38:51.429Z,12.09
2022-09-05T21:42:05.032Z,12.06
2022-09-05T21:47:41.435Z,12.06
2022-09-05T21:48:42.799Z,12.06
2022-09-05T21:51:52.393Z,12.08
2022-09-05T21:59:20.376Z,12.10
2022-09-05T21:59:26.028Z,12.13
2022-09-05T22:01:51.885Z,12.12
2022-09-05T22:05:03.070Z,12.17
2022-09-05T22:08:06.952Z,12.27
2022-09-05T22:11:13.946Z,12.39
2022-09-05T22:14:17.969Z,12.44
2022-09-05T22:17:23.272Z,12.54
2022-09-05T22:20:28.507Z,12.64
2022-09-05T22:23:32.593Z,12.61
2022-09-05T22:26:40.396Z,12.66
2022-09-05T22:29:58.245Z,12.72
2022-09-05T22:33:03.768Z,12.79
2022-09-05T22:36:08.124Z,12.85
2022-09-05T22:39:12.177Z,13.04
2022-09-05T22:42:20.704Z,13.23
2022-09-05T22:45:25.252Z,13.38
2022-09-05T22:48:29.496Z,13.53
2022-09-05T22:51:33.339Z,13.62
2022-09-05T22:54:37.848Z,13.65
2022-09-05T22:57:42.455Z,13.75
2022-09-05T23:00:46.172Z,13.94
2022-09-05T23:03:49.946Z,14.03
2022-09-05T23:06:53.786Z,14.07
2022-09-05T23:09:57.492Z,14.02
2022-09-05T23:13:09.263Z,14.03
2022-09-05T23:16:13.307Z,14.14
2022-09-05T23:19:17.367Z,14.15
2022-09-05T23:22:20.994Z,14.20
2022-09-05T23:25:25.298Z,14.14
2022-09-05T23:28:29.651Z,14.04
2022-09-05T23:31:33.957Z,14.04
2022-09-05T23:34:37.537Z,14.07
2022-09-05T23:37:46.254Z,14.15
2022-09-05T23:40:49.557Z,14.14
2022-09-05T23:43:53.931Z,14.14
2022-09-05T23:46:57.277Z,14.25
2022-09-05T23:50:01.520Z,14.21
2022-09-05T23:53:05.383Z,14.18
2022-09-05T23:56:11.908Z,14.24
2022-09-05T23:59:15.585Z,14.26
